CheckWX is a tool to help pilots better visualize weather data.  It is not intended as a substitute for an official pre-flight weather briefing.

09:05:17 UTC

KGPH METAR
Midwest National Air Center Airport
Mosby, Missouri, USA
Current

10 mins ago

KGPH 220855Z AUTO 04004KT 10SM CLR M02/M05 A3028 RMK AO2
Observed
Feb-22 @ 08:55 UTC
Wind
  • 040° at 4 KTS
Visibility
10 SM
Flight Rules
VFR
Cloud Levels
  • Clear skies
Temperature
-2°C / 28°F
Dewpoint
-5°C / 23°F
Humidity
80%
Altimeter
30.28" Hg
Pressure
1025.42 hPa
Previous

30 mins ago

KGPH 220835Z AUTO 03003KT 10SM CLR M01/M05 A3027 RMK AO2
Observed
Feb-22 @ 08:35 UTC
Wind
  • 030° at 3 KTS
Visibility
10 SM
Flight Rules
VFR
Cloud Levels
  • Clear skies
Temperature
-1°C / 30°F
Dewpoint
-5°C / 23°F
Humidity
75%
Altimeter
30.27" Hg
Pressure
1025.02 hPa
Previous

50 mins ago

KGPH 220815Z AUTO 35003KT 10SM CLR M01/M05 A3027 RMK AO2
Observed
Feb-22 @ 08:15 UTC
Wind
  • 350° at 3 KTS
Visibility
10 SM
Flight Rules
VFR
Cloud Levels
  • Clear skies
Temperature
-1°C / 30°F
Dewpoint
-5°C / 23°F
Humidity
75%
Altimeter
30.27" Hg
Pressure
1025.02 hPa